sensor_id;sensor_type;location;lat;lon;timestamp;P1;durP1;ratioP1;P2;durP2;ratioP2
12687;SDS011;6408;59.388;17.798;2023-03-17T00:01:11;3.67;;;1.53;;
12687;SDS011;6408;59.388;17.798;2023-03-17T00:03:40;2.37;;;1.40;;
12687;SDS011;6408;59.388;17.798;2023-03-17T00:06:13;4.13;;;2.00;;
12687;SDS011;6408;59.388;17.798;2023-03-17T00:08:43;3.40;;;1.50;;
12687;SDS011;6408;59.388;17.798;2023-03-17T00:11:11;6.17;;;1.97;;
12687;SDS011;6408;59.388;17.798;2023-03-17T00:13:40;3.80;;;1.90;;
12687;SDS011;6408;59.388;17.798;2023-03-17T00:16:11;5.53;;;1.60;;
12687;SDS011;6408;59.388;17.798;2023-03-17T00:18:42;4.30;;;1.50;;
12687;SDS011;6408;59.388;17.798;2023-03-17T00:21:13;2.77;;;1.63;;
12687;SDS011;6408;59.388;17.798;2023-03-17T00:23:44;5.20;;;1.77;;
12687;SDS011;6408;59.388;17.798;2023-03-17T00:26:16;2.80;;;1.40;;
12687;SDS011;6408;59.388;17.798;2023-03-17T00:28:44;3.60;;;1.40;;
12687;SDS011;6408;59.388;17.798;2023-03-17T00:31:13;2.20;;;1.63;;
12687;SDS011;6408;59.388;17.798;2023-03-17T00:33:42;3.13;;;1.50;;
12687;SDS011;6408;59.388;17.798;2023-03-17T00:36:14;4.93;;;1.50;;
12687;SDS011;6408;59.388;17.798;2023-03-17T00:38:44;2.57;;;1.60;;
12687;SDS011;6408;59.388;17.798;2023-03-17T00:41:13;3.27;;;1.67;;
12687;SDS011;6408;59.388;17.798;2023-03-17T00:43:40;3.07;;;1.67;;
12687;SDS011;6408;59.388;17.798;2023-03-17T00:46:10;3.93;;;1.70;;
12687;SDS011;6408;59.388;17.798;2023-03-17T00:48:40;2.37;;;1.40;;
12687;SDS011;6408;59.388;17.798;2023-03-17T00:51:09;3.00;;;1.80;;
12687;SDS011;6408;59.388;17.798;2023-03-17T00:53:39;4.67;;;1.80;;
12687;SDS011;6408;59.388;17.798;2023-03-17T00:56:09;4.30;;;1.87;;
12687;SDS011;6408;59.388;17.798;2023-03-17T00:58:39;3.77;;;1.60;;
12687;SDS011;6408;59.388;17.798;2023-03-17T01:01:07;4.63;;;1.87;;
12687;SDS011;6408;59.388;17.798;2023-03-17T01:03:36;4.73;;;2.00;;
12687;SDS011;6408;59.388;17.798;2023-03-17T01:06:05;2.90;;;1.60;;
12687;SDS011;6408;59.388;17.798;2023-03-17T01:08:35;4.13;;;1.70;;
12687;SDS011;6408;59.388;17.798;2023-03-17T01:11:08;6.67;;;2.00;;
12687;SDS011;6408;59.388;17.798;2023-03-17T01:13:42;4.30;;;1.70;;
12687;SDS011;6408;59.388;17.798;2023-03-17T01:16:10;2.47;;;1.27;;
12687;SDS011;6408;59.388;17.798;2023-03-17T01:18:38;4.67;;;2.03;;
12687;SDS011;6408;59.388;17.798;2023-03-17T01:21:05;5.63;;;2.33;;
12687;SDS011;6408;59.388;17.798;2023-03-17T01:23:33;3.30;;;1.83;;
12687;SDS011;6408;59.388;17.798;2023-03-17T01:26:01;4.67;;;2.10;;
12687;SDS011;6408;59.388;17.798;2023-03-17T01:28:31;5.37;;;2.50;;
12687;SDS011;6408;59.388;17.798;2023-03-17T01:31:00;3.40;;;1.93;;
12687;SDS011;6408;59.388;17.798;2023-03-17T01:33:29;4.80;;;2.30;;
12687;SDS011;6408;59.388;17.798;2023-03-17T01:35:57;6.30;;;1.97;;
12687;SDS011;6408;59.388;17.798;2023-03-17T01:38:25;2.60;;;1.77;;
12687;SDS011;6408;59.388;17.798;2023-03-17T01:40:53;4.43;;;1.80;;
12687;SDS011;6408;59.388;17.798;2023-03-17T01:43:21;3.97;;;1.93;;
12687;SDS011;6408;59.388;17.798;2023-03-17T01:48:53;3.27;;;1.50;;
12687;SDS011;6408;59.388;17.798;2023-03-17T01:51:29;7.63;;;2.10;;
12687;SDS011;6408;59.388;17.798;2023-03-17T01:54:03;2.87;;;1.70;;
12687;SDS011;6408;59.388;17.798;2023-03-17T01:56:33;3.00;;;1.90;;
12687;SDS011;6408;59.388;17.798;2023-03-17T01:59:04;6.43;;;2.27;;
12687;SDS011;6408;59.388;17.798;2023-03-17T02:01:37;6.43;;;2.30;;
12687;SDS011;6408;59.388;17.798;2023-03-17T02:04:11;3.73;;;2.30;;
12687;SDS011;6408;59.388;17.798;2023-03-17T02:06:40;3.80;;;1.70;;
12687;SDS011;6408;59.388;17.798;2023-03-17T02:09:09;3.00;;;1.63;;
12687;SDS011;6408;59.388;17.798;2023-03-17T02:11:36;10.37;;;2.00;;
12687;SDS011;6408;59.388;17.798;2023-03-17T02:14:04;6.73;;;1.77;;
12687;SDS011;6408;59.388;17.798;2023-03-17T02:16:33;7.20;;;1.97;;
12687;SDS011;6408;59.388;17.798;2023-03-17T02:19:02;7.60;;;2.23;;
12687;SDS011;6408;59.388;17.798;2023-03-17T02:21:40;6.33;;;2.03;;
12687;SDS011;6408;59.388;17.798;2023-03-17T02:24:12;5.10;;;2.20;;
12687;SDS011;6408;59.388;17.798;2023-03-17T02:26:46;4.10;;;1.90;;
12687;SDS011;6408;59.388;17.798;2023-03-17T02:29:18;5.60;;;2.23;;
12687;SDS011;6408;59.388;17.798;2023-03-17T02:31:47;3.20;;;1.80;;
12687;SDS011;6408;59.388;17.798;2023-03-17T02:34:15;6.60;;;1.87;;
12687;SDS011;6408;59.388;17.798;2023-03-17T02:36:45;3.67;;;2.07;;
12687;SDS011;6408;59.388;17.798;2023-03-17T02:39:12;5.90;;;1.90;;
12687;SDS011;6408;59.388;17.798;2023-03-17T02:41:40;5.30;;;1.70;;
12687;SDS011;6408;59.388;17.798;2023-03-17T02:44:08;5.03;;;1.87;;
12687;SDS011;6408;59.388;17.798;2023-03-17T02:46:36;5.33;;;1.80;;
12687;SDS011;6408;59.388;17.798;2023-03-17T02:49:04;3.37;;;2.27;;
12687;SDS011;6408;59.388;17.798;2023-03-17T02:51:32;4.30;;;1.73;;
12687;SDS011;6408;59.388;17.798;2023-03-17T02:54:02;3.53;;;1.60;;
12687;SDS011;6408;59.388;17.798;2023-03-17T02:56:30;4.17;;;1.87;;
12687;SDS011;6408;59.388;17.798;2023-03-17T02:59:00;4.93;;;1.90;;
12687;SDS011;6408;59.388;17.798;2023-03-17T03:01:27;3.67;;;1.70;;
12687;SDS011;6408;59.388;17.798;2023-03-17T03:03:55;4.17;;;1.90;;
12687;SDS011;6408;59.388;17.798;2023-03-17T03:06:22;6.07;;;1.80;;
12687;SDS011;6408;59.388;17.798;2023-03-17T03:08:50;3.57;;;1.50;;
12687;SDS011;6408;59.388;17.798;2023-03-17T03:11:20;4.13;;;1.70;;
12687;SDS011;6408;59.388;17.798;2023-03-17T03:13:49;3.27;;;1.90;;
12687;SDS011;6408;59.388;17.798;2023-03-17T03:16:16;3.90;;;2.00;;
12687;SDS011;6408;59.388;17.798;2023-03-17T03:18:44;2.60;;;1.30;;
12687;SDS011;6408;59.388;17.798;2023-03-17T03:21:11;3.90;;;1.77;;
12687;SDS011;6408;59.388;17.798;2023-03-17T03:23:39;5.27;;;1.70;;
12687;SDS011;6408;59.388;17.798;2023-03-17T03:26:07;3.50;;;1.63;;
12687;SDS011;6408;59.388;17.798;2023-03-17T03:28:37;2.83;;;1.70;;
12687;SDS011;6408;59.388;17.798;2023-03-17T03:31:05;7.00;;;1.90;;
12687;SDS011;6408;59.388;17.798;2023-03-17T03:33:33;3.47;;;1.60;;
12687;SDS011;6408;59.388;17.798;2023-03-17T03:36:01;3.97;;;1.43;;
12687;SDS011;6408;59.388;17.798;2023-03-17T03:38:29;4.30;;;1.77;;
12687;SDS011;6408;59.388;17.798;2023-03-17T03:40:57;3.47;;;1.57;;
12687;SDS011;6408;59.388;17.798;2023-03-17T03:43:24;4.60;;;1.90;;
12687;SDS011;6408;59.388;17.798;2023-03-17T03:45:54;3.57;;;1.80;;
12687;SDS011;6408;59.388;17.798;2023-03-17T03:48:21;3.20;;;1.57;;
12687;SDS011;6408;59.388;17.798;2023-03-17T03:50:49;2.80;;;1.43;;
12687;SDS011;6408;59.388;17.798;2023-03-17T03:53:20;3.13;;;1.60;;
12687;SDS011;6408;59.388;17.798;2023-03-17T03:55:48;3.30;;;1.30;;
12687;SDS011;6408;59.388;17.798;2023-03-17T03:58:15;2.90;;;1.43;;
12687;SDS011;6408;59.388;17.798;2023-03-17T04:00:43;2.50;;;1.33;;
12687;SDS011;6408;59.388;17.798;2023-03-17T04:03:14;4.17;;;1.40;;
12687;SDS011;6408;59.388;17.798;2023-03-17T04:05:42;3.63;;;1.33;;
12687;SDS011;6408;59.388;17.798;2023-03-17T04:08:10;3.27;;;1.63;;
12687;SDS011;6408;59.388;17.798;2023-03-17T04:10:38;1.97;;;1.30;;
12687;SDS011;6408;59.388;17.798;2023-03-17T04:13:05;2.47;;;1.47;;
12687;SDS011;6408;59.388;17.798;2023-03-17T04:15:33;5.57;;;1.70;;
12687;SDS011;6408;59.388;17.798;2023-03-17T04:18:01;3.60;;;1.47;;
12687;SDS011;6408;59.388;17.798;2023-03-17T04:20:31;2.87;;;1.50;;
12687;SDS011;6408;59.388;17.798;2023-03-17T04:22:58;3.00;;;1.73;;
12687;SDS011;6408;59.388;17.798;2023-03-17T04:25:26;3.70;;;1.60;;
12687;SDS011;6408;59.388;17.798;2023-03-17T04:27:54;2.07;;;1.37;;
12687;SDS011;6408;59.388;17.798;2023-03-17T04:30:21;4.77;;;1.40;;
12687;SDS011;6408;59.388;17.798;2023-03-17T04:32:49;3.90;;;1.90;;
12687;SDS011;6408;59.388;17.798;2023-03-17T04:35:18;2.97;;;1.30;;
12687;SDS011;6408;59.388;17.798;2023-03-17T04:37:48;3.20;;;1.03;;
12687;SDS011;6408;59.388;17.798;2023-03-17T04:40:16;4.30;;;1.57;;
12687;SDS011;6408;59.388;17.798;2023-03-17T04:42:45;3.03;;;1.30;;
12687;SDS011;6408;59.388;17.798;2023-03-17T04:45:13;2.83;;;1.60;;
12687;SDS011;6408;59.388;17.798;2023-03-17T04:47:41;6.10;;;1.63;;
12687;SDS011;6408;59.388;17.798;2023-03-17T04:50:10;4.43;;;1.60;;
12687;SDS011;6408;59.388;17.798;2023-03-17T04:52:38;1.40;;;1.30;;
12687;SDS011;6408;59.388;17.798;2023-03-17T04:55:09;3.93;;;1.50;;
12687;SDS011;6408;59.388;17.798;2023-03-17T04:57:37;3.17;;;1.37;;
12687;SDS011;6408;59.388;17.798;2023-03-17T05:00:06;2.70;;;1.40;;
12687;SDS011;6408;59.388;17.798;2023-03-17T05:02:35;2.97;;;1.20;;
12687;SDS011;6408;59.388;17.798;2023-03-17T05:05:03;2.43;;;1.30;;
12687;SDS011;6408;59.388;17.798;2023-03-17T05:07:31;4.60;;;1.57;;
12687;SDS011;6408;59.388;17.798;2023-03-17T05:09:59;2.57;;;1.50;;
12687;SDS011;6408;59.388;17.798;2023-03-17T05:12:28;1.10;;;1.00;;
12687;SDS011;6408;59.388;17.798;2023-03-17T05:14:56;4.97;;;1.40;;
12687;SDS011;6408;59.388;17.798;2023-03-17T05:17:23;2.47;;;1.47;;
12687;SDS011;6408;59.388;17.798;2023-03-17T05:19:51;2.23;;;1.60;;
12687;SDS011;6408;59.388;17.798;2023-03-17T05:22:18;2.77;;;1.20;;
12687;SDS011;6408;59.388;17.798;2023-03-17T05:24:46;4.70;;;1.30;;
12687;SDS011;6408;59.388;17.798;2023-03-17T05:27:13;1.30;;;1.00;;
12687;SDS011;6408;59.388;17.798;2023-03-17T05:29:44;1.53;;;1.20;;
12687;SDS011;6408;59.388;17.798;2023-03-17T05:32:12;2.50;;;1.00;;
12687;SDS011;6408;59.388;17.798;2023-03-17T05:34:40;1.63;;;1.07;;
12687;SDS011;6408;59.388;17.798;2023-03-17T05:37:09;1.03;;;0.93;;
12687;SDS011;6408;59.388;17.798;2023-03-17T05:39:36;4.27;;;1.50;;
12687;SDS011;6408;59.388;17.798;2023-03-17T05:42:04;4.13;;;1.00;;
12687;SDS011;6408;59.388;17.798;2023-03-17T05:44:32;3.13;;;1.47;;
12687;SDS011;6408;59.388;17.798;2023-03-17T05:47:02;4.73;;;1.43;;
12687;SDS011;6408;59.388;17.798;2023-03-17T05:49:29;4.20;;;1.20;;
12687;SDS011;6408;59.388;17.798;2023-03-17T05:51:57;3.07;;;1.33;;
12687;SDS011;6408;59.388;17.798;2023-03-17T05:54:24;3.27;;;1.50;;
12687;SDS011;6408;59.388;17.798;2023-03-17T05:56:52;2.67;;;1.40;;
12687;SDS011;6408;59.388;17.798;2023-03-17T05:59:20;1.70;;;1.37;;
12687;SDS011;6408;59.388;17.798;2023-03-17T06:01:47;4.50;;;1.50;;
12687;SDS011;6408;59.388;17.798;2023-03-17T06:04:17;3.43;;;1.40;;
12687;SDS011;6408;59.388;17.798;2023-03-17T06:06:45;2.43;;;1.20;;
12687;SDS011;6408;59.388;17.798;2023-03-17T06:09:12;3.10;;;1.50;;
12687;SDS011;6408;59.388;17.798;2023-03-17T06:11:40;6.10;;;2.00;;
12687;SDS011;6408;59.388;17.798;2023-03-17T06:14:08;0.93;;;0.90;;
12687;SDS011;6408;59.388;17.798;2023-03-17T06:16:36;1.80;;;1.10;;
12687;SDS011;6408;59.388;17.798;2023-03-17T06:19:04;2.90;;;1.57;;
12687;SDS011;6408;59.388;17.798;2023-03-17T06:21:34;3.60;;;1.33;;
12687;SDS011;6408;59.388;17.798;2023-03-17T06:24:02;2.13;;;1.20;;
12687;SDS011;6408;59.388;17.798;2023-03-17T06:26:30;1.57;;;1.03;;
12687;SDS011;6408;59.388;17.798;2023-03-17T06:28:57;2.87;;;1.30;;
12687;SDS011;6408;59.388;17.798;2023-03-17T06:31:26;2.07;;;1.07;;
12687;SDS011;6408;59.388;17.798;2023-03-17T06:33:54;1.40;;;1.03;;
12687;SDS011;6408;59.388;17.798;2023-03-17T06:36:22;2.87;;;1.10;;
12687;SDS011;6408;59.388;17.798;2023-03-17T06:38:52;1.70;;;1.13;;
12687;SDS011;6408;59.388;17.798;2023-03-17T06:41:19;5.63;;;1.13;;
12687;SDS011;6408;59.388;17.798;2023-03-17T06:43:47;2.50;;;1.37;;
12687;SDS011;6408;59.388;17.798;2023-03-17T06:46:15;1.90;;;1.20;;
12687;SDS011;6408;59.388;17.798;2023-03-17T06:48:43;3.17;;;1.07;;
12687;SDS011;6408;59.388;17.798;2023-03-17T06:51:10;2.47;;;1.37;;
12687;SDS011;6408;59.388;17.798;2023-03-17T06:53:38;2.33;;;1.13;;
12687;SDS011;6408;59.388;17.798;2023-03-17T06:56:08;2.20;;;1.20;;
12687;SDS011;6408;59.388;17.798;2023-03-17T06:58:35;3.03;;;0.90;;
12687;SDS011;6408;59.388;17.798;2023-03-17T07:01:04;3.23;;;1.10;;
12687;SDS011;6408;59.388;17.798;2023-03-17T07:03:33;2.13;;;1.23;;
12687;SDS011;6408;59.388;17.798;2023-03-17T07:06:01;2.33;;;1.37;;
12687;SDS011;6408;59.388;17.798;2023-03-17T07:08:29;4.10;;;1.17;;
12687;SDS011;6408;59.388;17.798;2023-03-17T07:10:58;3.90;;;0.90;;
12687;SDS011;6408;59.388;17.798;2023-03-17T07:13:27;1.73;;;0.90;;
12687;SDS011;6408;59.388;17.798;2023-03-17T07:15:59;1.70;;;1.00;;
12687;SDS011;6408;59.388;17.798;2023-03-17T07:18:27;2.40;;;1.10;;
12687;SDS011;6408;59.388;17.798;2023-03-17T07:20:56;2.80;;;1.00;;
12687;SDS011;6408;59.388;17.798;2023-03-17T07:23:24;2.70;;;1.07;;
12687;SDS011;6408;59.388;17.798;2023-03-17T07:25:52;1.30;;;1.00;;
12687;SDS011;6408;59.388;17.798;2023-03-17T07:28:19;4.40;;;1.73;;
12687;SDS011;6408;59.388;17.798;2023-03-17T07:30:49;2.50;;;1.20;;
12687;SDS011;6408;59.388;17.798;2023-03-17T07:33:17;3.00;;;1.30;;
12687;SDS011;6408;59.388;17.798;2023-03-17T07:35:46;3.43;;;1.00;;
12687;SDS011;6408;59.388;17.798;2023-03-17T07:38:14;3.03;;;1.10;;
12687;SDS011;6408;59.388;17.798;2023-03-17T07:40:43;1.50;;;1.00;;
12687;SDS011;6408;59.388;17.798;2023-03-17T07:43:13;2.80;;;1.20;;
12687;SDS011;6408;59.388;17.798;2023-03-17T07:45:42;2.00;;;1.10;;
12687;SDS011;6408;59.388;17.798;2023-03-17T07:48:11;1.90;;;0.93;;
12687;SDS011;6408;59.388;17.798;2023-03-17T07:50:39;3.30;;;1.00;;
12687;SDS011;6408;59.388;17.798;2023-03-17T07:53:07;2.50;;;1.10;;
12687;SDS011;6408;59.388;17.798;2023-03-17T07:55:35;1.63;;;0.70;;
12687;SDS011;6408;59.388;17.798;2023-03-17T07:58:03;4.07;;;1.10;;
12687;SDS011;6408;59.388;17.798;2023-03-17T08:00:31;2.37;;;0.97;;
12687;SDS011;6408;59.388;17.798;2023-03-17T08:02:59;3.40;;;1.20;;
12687;SDS011;6408;59.388;17.798;2023-03-17T08:05:29;1.23;;;0.90;;
12687;SDS011;6408;59.388;17.798;2023-03-17T08:07:57;2.03;;;0.90;;
12687;SDS011;6408;59.388;17.798;2023-03-17T08:10:25;2.13;;;1.00;;
12687;SDS011;6408;59.388;17.798;2023-03-17T08:12:53;0.80;;;0.80;;
12687;SDS011;6408;59.388;17.798;2023-03-17T08:15:21;2.73;;;1.20;;
12687;SDS011;6408;59.388;17.798;2023-03-17T08:17:49;2.80;;;0.90;;
12687;SDS011;6408;59.388;17.798;2023-03-17T08:20:17;1.97;;;0.80;;
12687;SDS011;6408;59.388;17.798;2023-03-17T08:22:47;1.53;;;0.73;;
12687;SDS011;6408;59.388;17.798;2023-03-17T08:25:15;2.87;;;0.97;;
12687;SDS011;6408;59.388;17.798;2023-03-17T08:27:43;1.57;;;0.83;;
12687;SDS011;6408;59.388;17.798;2023-03-17T08:30:13;1.00;;;0.90;;
12687;SDS011;6408;59.388;17.798;2023-03-17T08:32:41;2.80;;;1.00;;
12687;SDS011;6408;59.388;17.798;2023-03-17T08:35:10;2.10;;;1.10;;
12687;SDS011;6408;59.388;17.798;2023-03-17T08:37:40;1.70;;;1.03;;
12687;SDS011;6408;59.388;17.798;2023-03-17T08:40:12;3.27;;;0.90;;
12687;SDS011;6408;59.388;17.798;2023-03-17T08:42:41;1.90;;;1.00;;
12687;SDS011;6408;59.388;17.798;2023-03-17T08:45:09;1.60;;;0.90;;
12687;SDS011;6408;59.388;17.798;2023-03-17T08:47:38;2.30;;;1.00;;
12687;SDS011;6408;59.388;17.798;2023-03-17T08:50:07;1.50;;;0.93;;
12687;SDS011;6408;59.388;17.798;2023-03-17T08:52:37;1.97;;;1.07;;
12687;SDS011;6408;59.388;17.798;2023-03-17T08:55:05;4.33;;;1.67;;
12687;SDS011;6408;59.388;17.798;2023-03-17T08:57:35;8.77;;;1.23;;
12687;SDS011;6408;59.388;17.798;2023-03-17T09:00:03;2.20;;;1.10;;
12687;SDS011;6408;59.388;17.798;2023-03-17T09:02:35;2.40;;;1.23;;
12687;SDS011;6408;59.388;17.798;2023-03-17T09:05:03;2.03;;;1.03;;
12687;SDS011;6408;59.388;17.798;2023-03-17T09:07:31;1.87;;;1.10;;
12687;SDS011;6408;59.388;17.798;2023-03-17T09:09:59;2.97;;;1.10;;
12687;SDS011;6408;59.388;17.798;2023-03-17T09:12:28;3.07;;;1.20;;
12687;SDS011;6408;59.388;17.798;2023-03-17T09:14:58;3.27;;;1.10;;
12687;SDS011;6408;59.388;17.798;2023-03-17T09:17:26;1.20;;;0.90;;
12687;SDS011;6408;59.388;17.798;2023-03-17T09:19:53;1.37;;;0.90;;
12687;SDS011;6408;59.388;17.798;2023-03-17T09:22:22;2.13;;;1.07;;
12687;SDS011;6408;59.388;17.798;2023-03-17T09:24:50;1.43;;;1.10;;
12687;SDS011;6408;59.388;17.798;2023-03-17T09:27:17;4.93;;;1.30;;
12687;SDS011;6408;59.388;17.798;2023-03-17T09:29:45;1.53;;;0.93;;
12687;SDS011;6408;59.388;17.798;2023-03-17T09:32:15;1.20;;;0.63;;
12687;SDS011;6408;59.388;17.798;2023-03-17T09:34:43;2.17;;;0.93;;
12687;SDS011;6408;59.388;17.798;2023-03-17T09:37:11;2.83;;;0.90;;
12687;SDS011;6408;59.388;17.798;2023-03-17T09:39:39;2.20;;;0.80;;
12687;SDS011;6408;59.388;17.798;2023-03-17T09:42:10;2.17;;;1.40;;
12687;SDS011;6408;59.388;17.798;2023-03-17T09:44:57;1.43;;;0.97;;
12687;SDS011;6408;59.388;17.798;2023-03-17T09:50:46;2.10;;;0.80;;
12687;SDS011;6408;59.388;17.798;2023-03-17T09:53:17;3.90;;;0.90;;
12687;SDS011;6408;59.388;17.798;2023-03-17T09:55:47;1.47;;;0.70;;
12687;SDS011;6408;59.388;17.798;2023-03-17T09:58:19;1.27;;;0.90;;
12687;SDS011;6408;59.388;17.798;2023-03-17T10:00:51;2.20;;;0.93;;
12687;SDS011;6408;59.388;17.798;2023-03-17T10:03:19;1.33;;;0.60;;
12687;SDS011;6408;59.388;17.798;2023-03-17T10:05:50;3.00;;;0.90;;
12687;SDS011;6408;59.388;17.798;2023-03-17T10:08:19;2.10;;;1.00;;
12687;SDS011;6408;59.388;17.798;2023-03-17T10:10:51;3.53;;;0.90;;
12687;SDS011;6408;59.388;17.798;2023-03-17T10:13:27;2.77;;;0.80;;
12687;SDS011;6408;59.388;17.798;2023-03-17T10:16:04;3.20;;;1.03;;
12687;SDS011;6408;59.388;17.798;2023-03-17T10:18:37;1.93;;;0.87;;
12687;SDS011;6408;59.388;17.798;2023-03-17T10:21:12;2.27;;;1.10;;
12687;SDS011;6408;59.388;17.798;2023-03-17T10:23:44;0.80;;;0.70;;
12687;SDS011;6408;59.388;17.798;2023-03-17T10:26:15;4.43;;;1.63;;
12687;SDS011;6408;59.388;17.798;2023-03-17T10:28:50;2.03;;;0.87;;
12687;SDS011;6408;59.388;17.798;2023-03-17T10:31:21;3.07;;;1.10;;
12687;SDS011;6408;59.388;17.798;2023-03-17T10:33:54;1.23;;;1.00;;
12687;SDS011;6408;59.388;17.798;2023-03-17T10:39:09;3.20;;;0.83;;
12687;SDS011;6408;59.388;17.798;2023-03-17T10:41:40;1.93;;;0.80;;
12687;SDS011;6408;59.388;17.798;2023-03-17T10:44:19;3.97;;;0.97;;
12687;SDS011;6408;59.388;17.798;2023-03-17T10:46:52;3.53;;;0.90;;
12687;SDS011;6408;59.388;17.798;2023-03-17T10:49:21;1.63;;;0.73;;
12687;SDS011;6408;59.388;17.798;2023-03-17T10:51:52;1.37;;;0.60;;
12687;SDS011;6408;59.388;17.798;2023-03-17T10:54:20;3.23;;;1.20;;
12687;SDS011;6408;59.388;17.798;2023-03-17T10:56:55;2.13;;;0.80;;
12687;SDS011;6408;59.388;17.798;2023-03-17T10:59:28;1.53;;;0.97;;
12687;SDS011;6408;59.388;17.798;2023-03-17T11:01:57;1.33;;;0.60;;
12687;SDS011;6408;59.388;17.798;2023-03-17T11:04:27;1.40;;;0.90;;
12687;SDS011;6408;59.388;17.798;2023-03-17T11:07:04;2.97;;;0.90;;
12687;SDS011;6408;59.388;17.798;2023-03-17T11:09:35;3.40;;;1.30;;
12687;SDS011;6408;59.388;17.798;2023-03-17T11:12:04;2.97;;;1.03;;
12687;SDS011;6408;59.388;17.798;2023-03-17T11:14:34;2.73;;;1.10;;
12687;SDS011;6408;59.388;17.798;2023-03-17T11:17:03;3.93;;;0.90;;
12687;SDS011;6408;59.388;17.798;2023-03-17T11:19:42;3.87;;;1.47;;
12687;SDS011;6408;59.388;17.798;2023-03-17T11:22:21;2.77;;;1.30;;
12687;SDS011;6408;59.388;17.798;2023-03-17T11:24:58;0.90;;;0.90;;
12687;SDS011;6408;59.388;17.798;2023-03-17T11:27:33;1.47;;;1.17;;
12687;SDS011;6408;59.388;17.798;2023-03-17T11:30:13;3.00;;;1.50;;
12687;SDS011;6408;59.388;17.798;2023-03-17T11:32:44;3.50;;;2.10;;
12687;SDS011;6408;59.388;17.798;2023-03-17T11:35:31;2.03;;;0.90;;
12687;SDS011;6408;59.388;17.798;2023-03-17T11:41:07;2.27;;;1.00;;
12687;SDS011;6408;59.388;17.798;2023-03-17T11:43:51;2.90;;;1.77;;
12687;SDS011;6408;59.388;17.798;2023-03-17T11:46:31;2.00;;;1.13;;
12687;SDS011;6408;59.388;17.798;2023-03-17T11:49:04;1.60;;;1.00;;
12687;SDS011;6408;59.388;17.798;2023-03-17T11:51:42;2.47;;;0.93;;
12687;SDS011;6408;59.388;17.798;2023-03-17T11:54:22;3.40;;;1.40;;
12687;SDS011;6408;59.388;17.798;2023-03-17T11:57:01;1.80;;;1.30;;
12687;SDS011;6408;59.388;17.798;2023-03-17T11:59:32;1.90;;;1.00;;
12687;SDS011;6408;59.388;17.798;2023-03-17T12:02:09;1.80;;;1.03;;
12687;SDS011;6408;59.388;17.798;2023-03-17T12:04:48;3.90;;;0.90;;
12687;SDS011;6408;59.388;17.798;2023-03-17T12:07:21;1.77;;;1.13;;
12687;SDS011;6408;59.388;17.798;2023-03-17T12:10:02;2.13;;;0.80;;
12687;SDS011;6408;59.388;17.798;2023-03-17T12:12:37;1.47;;;1.00;;
12687;SDS011;6408;59.388;17.798;2023-03-17T12:15:10;2.37;;;1.17;;
12687;SDS011;6408;59.388;17.798;2023-03-17T12:17:43;1.47;;;0.83;;
12687;SDS011;6408;59.388;17.798;2023-03-17T12:20:19;1.43;;;1.13;;
12687;SDS011;6408;59.388;17.798;2023-03-17T12:22:52;2.20;;;1.20;;
12687;SDS011;6408;59.388;17.798;2023-03-17T12:25:26;5.37;;;1.37;;
12687;SDS011;6408;59.388;17.798;2023-03-17T12:27:59;4.30;;;1.27;;
12687;SDS011;6408;59.388;17.798;2023-03-17T12:30:32;3.43;;;1.00;;
12687;SDS011;6408;59.388;17.798;2023-03-17T12:33:10;1.17;;;0.70;;
12687;SDS011;6408;59.388;17.798;2023-03-17T12:35:46;1.80;;;0.90;;
12687;SDS011;6408;59.388;17.798;2023-03-17T12:38:15;2.87;;;1.10;;
12687;SDS011;6408;59.388;17.798;2023-03-17T12:43:59;3.57;;;1.10;;
12687;SDS011;6408;59.388;17.798;2023-03-17T12:46:42;1.87;;;0.77;;
12687;SDS011;6408;59.388;17.798;2023-03-17T12:49:40;4.13;;;1.30;;
12687;SDS011;6408;59.388;17.798;2023-03-17T12:52:24;5.50;;;1.13;;
12687;SDS011;6408;59.388;17.798;2023-03-17T12:55:02;3.70;;;1.27;;
12687;SDS011;6408;59.388;17.798;2023-03-17T12:57:37;3.97;;;1.20;;
12687;SDS011;6408;59.388;17.798;2023-03-17T13:00:19;4.33;;;1.30;;
12687;SDS011;6408;59.388;17.798;2023-03-17T13:03:05;5.43;;;1.53;;
12687;SDS011;6408;59.388;17.798;2023-03-17T13:05:40;5.23;;;1.30;;
12687;SDS011;6408;59.388;17.798;2023-03-17T13:08:13;2.57;;;1.23;;
12687;SDS011;6408;59.388;17.798;2023-03-17T13:10:48;3.50;;;1.57;;
12687;SDS011;6408;59.388;17.798;2023-03-17T13:13:32;3.83;;;1.60;;
12687;SDS011;6408;59.388;17.798;2023-03-17T13:16:24;3.13;;;1.30;;
12687;SDS011;6408;59.388;17.798;2023-03-17T13:19:10;3.80;;;1.30;;
12687;SDS011;6408;59.388;17.798;2023-03-17T13:21:42;5.40;;;1.30;;
12687;SDS011;6408;59.388;17.798;2023-03-17T13:24:19;1.57;;;1.17;;
12687;SDS011;6408;59.388;17.798;2023-03-17T13:26:49;3.60;;;1.30;;
12687;SDS011;6408;59.388;17.798;2023-03-17T13:29:36;8.47;;;1.43;;
12687;SDS011;6408;59.388;17.798;2023-03-17T13:32:30;2.43;;;1.10;;
12687;SDS011;6408;59.388;17.798;2023-03-17T13:35:19;4.57;;;1.30;;
12687;SDS011;6408;59.388;17.798;2023-03-17T13:37:59;3.53;;;1.20;;
12687;SDS011;6408;59.388;17.798;2023-03-17T13:40:53;3.07;;;1.20;;
12687;SDS011;6408;59.388;17.798;2023-03-17T13:43:43;2.50;;;1.27;;
12687;SDS011;6408;59.388;17.798;2023-03-17T13:46:23;4.33;;;1.70;;
12687;SDS011;6408;59.388;17.798;2023-03-17T13:48:56;4.20;;;1.50;;
12687;SDS011;6408;59.388;17.798;2023-03-17T13:51:30;4.33;;;1.33;;
12687;SDS011;6408;59.388;17.798;2023-03-17T13:54:06;4.47;;;1.80;;
12687;SDS011;6408;59.388;17.798;2023-03-17T13:56:45;2.23;;;1.20;;
12687;SDS011;6408;59.388;17.798;2023-03-17T13:59:17;4.47;;;1.37;;
12687;SDS011;6408;59.388;17.798;2023-03-17T14:01:46;4.83;;;1.50;;
12687;SDS011;6408;59.388;17.798;2023-03-17T14:04:27;2.27;;;1.30;;
12687;SDS011;6408;59.388;17.798;2023-03-17T14:07:03;4.40;;;1.40;;
12687;SDS011;6408;59.388;17.798;2023-03-17T14:09:35;2.27;;;1.10;;
12687;SDS011;6408;59.388;17.798;2023-03-17T14:12:09;2.70;;;1.07;;
12687;SDS011;6408;59.388;17.798;2023-03-17T14:14:41;2.23;;;1.13;;
12687;SDS011;6408;59.388;17.798;2023-03-17T14:17:15;4.23;;;1.60;;
12687;SDS011;6408;59.388;17.798;2023-03-17T14:20:01;1.90;;;1.37;;
12687;SDS011;6408;59.388;17.798;2023-03-17T14:22:37;2.53;;;1.10;;
12687;SDS011;6408;59.388;17.798;2023-03-17T14:25:12;2.97;;;1.10;;
12687;SDS011;6408;59.388;17.798;2023-03-17T14:27:42;2.50;;;1.40;;
12687;SDS011;6408;59.388;17.798;2023-03-17T14:30:15;3.67;;;1.80;;
12687;SDS011;6408;59.388;17.798;2023-03-17T14:32:46;1.63;;;1.30;;
12687;SDS011;6408;59.388;17.798;2023-03-17T14:35:17;4.67;;;1.33;;
12687;SDS011;6408;59.388;17.798;2023-03-17T14:37:45;2.50;;;1.30;;
12687;SDS011;6408;59.388;17.798;2023-03-17T14:40:17;3.47;;;1.33;;
12687;SDS011;6408;59.388;17.798;2023-03-17T14:42:47;4.47;;;1.53;;
12687;SDS011;6408;59.388;17.798;2023-03-17T14:45:19;4.73;;;1.40;;
12687;SDS011;6408;59.388;17.798;2023-03-17T14:47:52;4.33;;;1.10;;
12687;SDS011;6408;59.388;17.798;2023-03-17T14:50:27;3.27;;;1.70;;
12687;SDS011;6408;59.388;17.798;2023-03-17T14:52:56;2.23;;;1.17;;
12687;SDS011;6408;59.388;17.798;2023-03-17T14:55:27;3.23;;;1.80;;
12687;SDS011;6408;59.388;17.798;2023-03-17T14:58:05;5.13;;;1.40;;
12687;SDS011;6408;59.388;17.798;2023-03-17T15:00:36;2.07;;;1.17;;
12687;SDS011;6408;59.388;17.798;2023-03-17T15:03:15;3.27;;;1.03;;
12687;SDS011;6408;59.388;17.798;2023-03-17T15:05:46;3.00;;;1.10;;
12687;SDS011;6408;59.388;17.798;2023-03-17T15:08:28;4.93;;;1.40;;
12687;SDS011;6408;59.388;17.798;2023-03-17T15:11:05;3.60;;;1.70;;
12687;SDS011;6408;59.388;17.798;2023-03-17T15:13:34;3.50;;;1.30;;
12687;SDS011;6408;59.388;17.798;2023-03-17T15:16:14;5.67;;;1.33;;
12687;SDS011;6408;59.388;17.798;2023-03-17T15:18:44;4.33;;;1.40;;
12687;SDS011;6408;59.388;17.798;2023-03-17T15:21:27;2.17;;;1.40;;
12687;SDS011;6408;59.388;17.798;2023-03-17T15:24:02;4.33;;;1.30;;
12687;SDS011;6408;59.388;17.798;2023-03-17T15:26:31;2.10;;;1.20;;